This is the latest recevied weather packets stored in our database for station/object KC9MWQ-13. If no packets are shown the sender has not sent any weather packets the latest 1 day(s).
| Time | Temp. | Humidity | Pressure | Rain* | Wind** | Luminosity | Snow |
|---|---|---|---|---|---|---|---|
| 1777992980 | 11.67° C | 78% | 1009.5 hPa | 0 mm | 0.89 m/s, 304° | 67 W/m² | - |
| 1777992679 | 11.67° C | 78% | 1009.5 hPa | 0 mm | 0.89 m/s, 335° | 80 W/m² | - |
| 1777992377 | 12.22° C | 81% | 1009.4 hPa | 0 mm | 2.68 m/s, 282° | 71 W/m² | - |
| 1777992074 | 12.78° C | 83% | 1009.5 hPa | 0 mm | 3.13 m/s, 320° | 66 W/m² | - |
| 1777991771 | 14.44° C | 88% | 1009.2 hPa | 0 mm | 1.34 m/s, 329° | 45 W/m² | - |
| 1777991468 | 14.44° C | 93% | 1008.9 hPa | 0 mm | 1.34 m/s, 277° | 61 W/m² | - |
| 1777991166 | 14.44° C | 94% | 1008.6 hPa | 0 mm | 2.68 m/s, 269° | 77 W/m² | - |
| 1777990863 | 14.44° C | 95% | 1008.7 hPa | 0 mm | 0.89 m/s, 299° | 72 W/m² | - |
| 1777990560 | 14.44° C | 96% | 1008.8 hPa | 0 mm | 1.34 m/s, 290° | 83 W/m² | - |
| 1777990257 | 13.89° C | 96% | 1008.7 hPa | 0 mm | 0.45 m/s, 281° | 56 W/m² | - |
| 1777989954 | 13.89° C | 97% | 1008.8 hPa | 0 mm | 1.79 m/s, 281° | 35 W/m² | - |
| 1777989650 | 13.89° C | 97% | 1008.9 hPa | 0 mm | 1.79 m/s, 265° | 28 W/m² | - |
| 1777989347 | 14.44° C | 97% | 1008.9 hPa | 0 mm | 1.34 m/s, 318° | 30 W/m² | - |
| 1777989043 | 14.44° C | 97% | 1008.7 hPa | 0 mm | 1.34 m/s, 270° | 49 W/m² | - |
| 1777988739 | 14.44° C | 97% | 1008.9 hPa | 0 mm | 1.34 m/s, 283° | 32 W/m² | - |
| 1777988437 | 14.44° C | 97% | 1008.9 hPa | 0 mm | 2.24 m/s, 285° | 28 W/m² | - |
| 1777988133 | 14.44° C | 97% | 1008.8 hPa | 0 mm | 2.24 m/s, 269° | 19 W/m² | - |
| 1777987833 | 14.44° C | 97% | 1008.7 hPa | 0 mm | 0.45 m/s, 279° | 32 W/m² | - |
| 1777987526 | 14.44° C | 96% | 1008.4 hPa | 0 mm | 1.79 m/s, 232° | 73 W/m² | - |
| 1777987224 | 14.44° C | 97% | 1008.2 hPa | 0 mm | 0.45 m/s, 276° | 99 W/m² | - |
| 1777986920 | 14.44° C | 97% | 1008.1 hPa | 0 mm | 1.34 m/s, 280° | 102 W/m² | - |
| 1777986618 | 14.44° C | 97% | 1007.9 hPa | 0 mm | 0.45 m/s, 241° | 131 W/m² | - |
| 1777986316 | 14.44° C | 97% | 1007.8 hPa | 0 mm | 1.79 m/s, 273° | 151 W/m² | - |
| 1777986014 | 13.89° C | 98% | 1007.8 hPa | 0 mm | 0.89 m/s, 281° | 124 W/m² | - |
| 1777985710 | 13.89° C | 98% | 1007.8 hPa | 0 mm | 0.45 m/s, 265° | 128 W/m² | - |
* Rain latest hour (hover to see other rain measurements)
** Current wind speed in m/s (hover to see current wind gust speed)